UAL1182 EDDF-EGLL
Flight info
| Callsign | UAL1182 |
|---|---|
| Flight time | 1h 10m |
| Altitude | 39000 |
| Route | OBOKA5G/25C OBOKA Z29 TORNU DCT ABNED L980 LOGAN LOGAN2H |
| Aircraft | A339/H-SDE3FGHIRWY/S |
Departure
| Time | 2026-04-18 09:18 |
|---|---|
| Airport | Frankfurt Main Airport (EDDF) |
Arrival
| Time | 2026-04-18 10:29 |
|---|---|
| Airport | London Heathrow Airport (EGLL) |
| Time | Latitude | Longitude | Altitude | Speed | Heading |
|---|---|---|---|---|---|
| 2026-04-18 08:56 | 50.03849 | 8.54691 | 358 ft | 0 kts | 160° |
| 2026-04-18 09:04 | 50.03848 | 8.54692 | 358 ft | 0 kts | 160° |
| 2026-04-18 09:04 | 50.03838 | 8.54698 | 358 ft | 2 kts | 160° |
| 2026-04-18 09:04 | 50.03808 | 8.54715 | 358 ft | 5 kts | 158° |
| 2026-04-18 09:05 | 50.03779 | 8.54766 | 357 ft | 7 kts | 109° |
| 2026-04-18 09:05 | 50.03781 | 8.54845 | 358 ft | 8 kts | 76° |
| 2026-04-18 09:05 | 50.03799 | 8.54930 | 358 ft | 8 kts | 69° |
| 2026-04-18 09:05 | 50.03823 | 8.55024 | 359 ft | 9 kts | 67° |
| 2026-04-18 09:06 | 50.03851 | 8.55125 | 359 ft | 10 kts | 67° |
| 2026-04-18 09:06 | 50.03881 | 8.55236 | 360 ft | 11 kts | 68° |
| 2026-04-18 09:06 | 50.03912 | 8.55355 | 361 ft | 12 kts | 69° |
| 2026-04-18 09:06 | 50.03944 | 8.55489 | 361 ft | 14 kts | 70° |
| 2026-04-18 09:07 | 50.03980 | 8.55642 | 362 ft | 16 kts | 72° |
| 2026-04-18 09:07 | 50.04018 | 8.55818 | 363 ft | 17 kts | 72° |
| 2026-04-18 09:07 | 50.04061 | 8.56002 | 364 ft | 18 kts | 68° |
| 2026-04-18 09:07 | 50.04107 | 8.56195 | 365 ft | 19 kts | 71° |
| 2026-04-18 09:08 | 50.04155 | 8.56396 | 366 ft | 20 kts | 69° |
| 2026-04-18 09:08 | 50.04205 | 8.56604 | 368 ft | 20 kts | 70° |
| 2026-04-18 09:08 | 50.04256 | 8.56819 | 369 ft | 21 kts | 70° |
| 2026-04-18 09:08 | 50.04307 | 8.57037 | 371 ft | 21 kts | 70° |
| 2026-04-18 09:09 | 50.04362 | 8.57255 | 373 ft | 21 kts | 69° |
| 2026-04-18 09:09 | 50.04414 | 8.57477 | 374 ft | 21 kts | 71° |
| 2026-04-18 09:09 | 50.04467 | 8.57699 | 376 ft | 22 kts | 69° |
| 2026-04-18 09:09 | 50.04522 | 8.57925 | 378 ft | 22 kts | 70° |
| 2026-04-18 09:10 | 50.04571 | 8.58131 | 379 ft | 18 kts | 70° |
| 2026-04-18 09:10 | 50.04616 | 8.58318 | 380 ft | 18 kts | 70° |
| 2026-04-18 09:10 | 50.04650 | 8.58459 | 382 ft | 10 kts | 71° |
| 2026-04-18 09:10 | 50.04643 | 8.58541 | 382 ft | 3 kts | 129° |
| 2026-04-18 09:11 | 50.04637 | 8.58549 | 382 ft | 1 kts | 139° |
| 2026-04-18 09:11 | 50.04629 | 8.58558 | 382 ft | 0 kts | 147° |
| 2026-04-18 09:16 | 50.04628 | 8.58559 | 382 ft | 0 kts | 147° |
| 2026-04-18 09:16 | 50.04590 | 8.58596 | 382 ft | 9 kts | 149° |
| 2026-04-18 09:16 | 50.04526 | 8.58632 | 382 ft | 9 kts | 186° |
| 2026-04-18 09:16 | 50.04495 | 8.58594 | 381 ft | 4 kts | 232° |
| 2026-04-18 09:17 | 50.04493 | 8.58588 | 381 ft | 0 kts | 241° |
| 2026-04-18 09:17 | 50.04430 | 8.58354 | 380 ft | 58 kts | 249° |
| 2026-04-18 09:17 | 50.04206 | 8.57418 | 373 ft | 123 kts | 249° |
| 2026-04-18 09:17 | 50.03845 | 8.55907 | 435 ft | 168 kts | 249° |
| 2026-04-18 09:18 | 50.03426 | 8.54119 | 889 ft | 181 kts | 249° |
| 2026-04-18 09:18 | 50.02995 | 8.52317 | 1679 ft | 176 kts | 249° |
| 2026-04-18 09:18 | 50.02709 | 8.50534 | 2430 ft | 174 kts | 267° |
| 2026-04-18 09:18 | 50.02754 | 8.48593 | 2886 ft | 190 kts | 275° |
| 2026-04-18 09:19 | 50.02899 | 8.46463 | 3362 ft | 208 kts | 276° |
| 2026-04-18 09:19 | 50.02928 | 8.44103 | 3858 ft | 226 kts | 266° |
| 2026-04-18 09:19 | 50.02708 | 8.41599 | 4357 ft | 244 kts | 261° |
| 2026-04-18 09:19 | 50.02395 | 8.38923 | 4807 ft | 264 kts | 259° |
| 2026-04-18 09:20 | 50.02029 | 8.35943 | 4971 ft | 296 kts | 259° |
| 2026-04-18 09:20 | 50.01622 | 8.32611 | 4978 ft | 332 kts | 258° |
| 2026-04-18 09:20 | 50.01330 | 8.29236 | 5262 ft | 352 kts | 270° |
| 2026-04-18 09:20 | 50.01896 | 8.25425 | 6274 ft | 353 kts | 292° |
| 2026-04-18 09:21 | 50.02848 | 8.22257 | 7462 ft | 343 kts | 294° |
| 2026-04-18 09:21 | 50.03832 | 8.18984 | 8699 ft | 333 kts | 294° |
| 2026-04-18 09:21 | 50.04750 | 8.15887 | 9911 ft | 324 kts | 294° |
| 2026-04-18 09:21 | 50.05758 | 8.12847 | 10972 ft | 319 kts | 299° |
| 2026-04-18 09:22 | 50.06981 | 8.09947 | 11647 ft | 326 kts | 305° |
| 2026-04-18 09:22 | 50.08394 | 8.07134 | 12431 ft | 331 kts | 307° |
| 2026-04-18 09:22 | 50.09835 | 8.04353 | 13214 ft | 334 kts | 307° |
| 2026-04-18 09:22 | 50.11284 | 8.01563 | 13996 ft | 337 kts | 307° |
| 2026-04-18 09:23 | 50.12761 | 7.98707 | 14790 ft | 339 kts | 307° |
| 2026-04-18 09:23 | 50.14229 | 7.95859 | 15549 ft | 342 kts | 307° |
| 2026-04-18 09:23 | 50.15710 | 7.92975 | 16292 ft | 346 kts | 307° |
| 2026-04-18 09:23 | 50.17227 | 7.90018 | 17035 ft | 349 kts | 307° |
| 2026-04-18 09:24 | 50.18739 | 7.87065 | 17769 ft | 352 kts | 307° |
| 2026-04-18 09:24 | 50.20264 | 7.84079 | 18505 ft | 354 kts | 307° |
| 2026-04-18 09:24 | 50.21808 | 7.81053 | 19230 ft | 358 kts | 307° |
| 2026-04-18 09:24 | 50.23356 | 7.78018 | 19913 ft | 361 kts | 307° |
| 2026-04-18 09:25 | 50.25071 | 7.75178 | 20543 ft | 367 kts | 317° |
| 2026-04-18 09:25 | 50.27146 | 7.72831 | 21199 ft | 372 kts | 328° |
| 2026-04-18 09:25 | 50.29481 | 7.71026 | 21861 ft | 376 kts | 334° |
| 2026-04-18 09:25 | 50.31889 | 7.69385 | 22491 ft | 379 kts | 335° |
| 2026-04-18 09:26 | 50.34320 | 7.67753 | 23101 ft | 382 kts | 335° |
| 2026-04-18 09:26 | 50.36753 | 7.66106 | 23691 ft | 385 kts | 334° |
| 2026-04-18 09:26 | 50.39208 | 7.64432 | 24214 ft | 387 kts | 334° |
| 2026-04-18 09:26 | 50.41673 | 7.62741 | 24714 ft | 390 kts | 334° |
| 2026-04-18 09:27 | 50.44175 | 7.61021 | 25211 ft | 393 kts | 334° |
| 2026-04-18 09:27 | 50.46669 | 7.59302 | 25694 ft | 395 kts | 334° |
| 2026-04-18 09:27 | 50.49195 | 7.57557 | 26194 ft | 397 kts | 334° |
| 2026-04-18 09:27 | 50.51728 | 7.55808 | 26686 ft | 399 kts | 334° |
| 2026-04-18 09:28 | 50.54241 | 7.53980 | 27156 ft | 401 kts | 332° |
| 2026-04-18 09:28 | 50.56717 | 7.51908 | 27638 ft | 402 kts | 328° |
| 2026-04-18 09:28 | 50.59113 | 7.49620 | 28111 ft | 404 kts | 326° |
| 2026-04-18 09:28 | 50.61477 | 7.47220 | 28560 ft | 406 kts | 326° |
| 2026-04-18 09:29 | 50.63840 | 7.44791 | 28993 ft | 409 kts | 325° |
| 2026-04-18 09:29 | 50.66218 | 7.42344 | 29435 ft | 411 kts | 326° |
| 2026-04-18 09:29 | 50.68610 | 7.39883 | 29859 ft | 413 kts | 325° |
| 2026-04-18 09:29 | 50.70917 | 7.37176 | 30283 ft | 414 kts | 319° |
| 2026-04-18 09:30 | 50.73033 | 7.34091 | 30716 ft | 415 kts | 313° |
| 2026-04-18 09:30 | 50.74942 | 7.30659 | 31146 ft | 416 kts | 307° |
| 2026-04-18 09:30 | 50.76614 | 7.26934 | 31531 ft | 419 kts | 302° |
| 2026-04-18 09:30 | 50.77981 | 7.23152 | 31875 ft | 421 kts | 298° |
| 2026-04-18 09:31 | 50.79324 | 7.19084 | 32335 ft | 421 kts | 297° |
| 2026-04-18 09:31 | 50.80603 | 7.15126 | 32952 ft | 417 kts | 297° |
| 2026-04-18 09:31 | 50.81912 | 7.11071 | 33590 ft | 413 kts | 297° |
| 2026-04-18 09:31 | 50.83202 | 7.07071 | 34228 ft | 409 kts | 297° |
| 2026-04-18 09:32 | 50.84486 | 7.03099 | 34840 ft | 406 kts | 297° |
| 2026-04-18 09:32 | 50.85774 | 6.99112 | 35428 ft | 401 kts | 297° |
| 2026-04-18 09:32 | 50.87017 | 6.95260 | 36004 ft | 395 kts | 297° |
| 2026-04-18 09:32 | 50.88260 | 6.91407 | 36580 ft | 390 kts | 297° |
| 2026-04-18 09:33 | 50.89471 | 6.87647 | 37273 ft | 384 kts | 297° |
| 2026-04-18 09:33 | 50.90666 | 6.83932 | 37892 ft | 381 kts | 297° |
| 2026-04-18 09:33 | 50.91884 | 6.80133 | 37993 ft | 388 kts | 296° |
| 2026-04-18 09:33 | 50.93109 | 6.76305 | 37993 ft | 396 kts | 297° |
| 2026-04-18 09:34 | 50.95641 | 6.68378 | 37990 ft | 412 kts | 296° |
| 2026-04-18 09:34 | 50.98271 | 6.60114 | 37992 ft | 426 kts | 296° |
| 2026-04-18 09:35 | 51.00965 | 6.51625 | 38330 ft | 432 kts | 296° |
| 2026-04-18 09:35 | 51.02301 | 6.47398 | 38227 ft | 432 kts | 296° |
| 2026-04-18 09:35 | 51.03641 | 6.43155 | 38198 ft | 433 kts | 296° |
| 2026-04-18 09:36 | 51.06325 | 6.34634 | 38182 ft | 433 kts | 295° |
| 2026-04-18 09:36 | 51.09021 | 6.26043 | 38177 ft | 434 kts | 295° |
| 2026-04-18 09:37 | 51.11608 | 6.17758 | 38178 ft | 434 kts | 294° |
| 2026-04-18 09:37 | 51.13891 | 6.09114 | 38177 ft | 433 kts | 289° |
| 2026-04-18 09:38 | 51.15580 | 6.00372 | 38171 ft | 433 kts | 284° |
| 2026-04-18 09:38 | 51.17020 | 5.91548 | 38167 ft | 433 kts | 284° |
| 2026-04-18 09:39 | 51.18727 | 5.82372 | 38168 ft | 434 kts | 289° |
| 2026-04-18 09:39 | 51.20946 | 5.73461 | 38167 ft | 434 kts | 291° |
| 2026-04-18 09:40 | 51.23283 | 5.64616 | 38168 ft | 435 kts | 291° |
| 2026-04-18 09:40 | 51.25637 | 5.55670 | 38168 ft | 435 kts | 291° |
| 2026-04-18 09:41 | 51.27970 | 5.46762 | 38167 ft | 435 kts | 291° |
| 2026-04-18 09:41 | 51.30296 | 5.37835 | 38170 ft | 435 kts | 291° |
| 2026-04-18 09:42 | 51.32579 | 5.29041 | 38168 ft | 434 kts | 290° |
| 2026-04-18 09:42 | 51.34823 | 5.20359 | 38171 ft | 434 kts | 290° |
| 2026-04-18 09:43 | 51.37125 | 5.11427 | 38166 ft | 434 kts | 290° |
| 2026-04-18 09:43 | 51.39429 | 5.02445 | 38167 ft | 435 kts | 290° |
| 2026-04-18 09:44 | 51.41706 | 4.93535 | 38172 ft | 435 kts | 290° |
| 2026-04-18 09:44 | 51.43986 | 4.84574 | 38173 ft | 435 kts | 290° |
| 2026-04-18 09:45 | 51.46283 | 4.75519 | 38175 ft | 435 kts | 289° |
| 2026-04-18 09:45 | 51.48555 | 4.66516 | 38180 ft | 436 kts | 289° |
| 2026-04-18 09:46 | 51.50803 | 4.57576 | 38185 ft | 435 kts | 289° |
| 2026-04-18 09:46 | 51.53067 | 4.48538 | 38187 ft | 434 kts | 289° |
| 2026-04-18 09:47 | 51.55310 | 4.39544 | 38189 ft | 435 kts | 289° |
| 2026-04-18 09:47 | 51.57518 | 4.30657 | 38191 ft | 435 kts | 288° |
| 2026-04-18 09:48 | 51.58642 | 4.26120 | 38077 ft | 436 kts | 288° |
| 2026-04-18 09:48 | 51.59760 | 4.21592 | 38161 ft | 436 kts | 288° |
| 2026-04-18 09:48 | 51.61981 | 4.12581 | 38188 ft | 436 kts | 288° |
| 2026-04-18 09:49 | 51.64197 | 4.03550 | 38193 ft | 436 kts | 288° |
| 2026-04-18 09:49 | 51.66422 | 3.94440 | 38190 ft | 436 kts | 288° |
| 2026-04-18 09:50 | 51.68618 | 3.85416 | 38188 ft | 437 kts | 288° |
| 2026-04-18 09:50 | 51.70831 | 3.76288 | 38187 ft | 437 kts | 288° |
| 2026-04-18 09:51 | 51.73009 | 3.67269 | 37949 ft | 435 kts | 288° |
| 2026-04-18 09:51 | 51.74115 | 3.62670 | 36947 ft | 441 kts | 288° |
| 2026-04-18 09:51 | 51.75219 | 3.58067 | 35964 ft | 448 kts | 288° |
| 2026-04-18 09:52 | 51.76340 | 3.53382 | 35156 ft | 452 kts | 287° |
| 2026-04-18 09:52 | 51.77460 | 3.48700 | 34423 ft | 453 kts | 287° |
| 2026-04-18 09:52 | 51.78598 | 3.43928 | 33637 ft | 454 kts | 287° |
| 2026-04-18 09:52 | 51.79722 | 3.39206 | 32881 ft | 454 kts | 287° |
| 2026-04-18 09:53 | 51.80777 | 3.34763 | 32343 ft | 450 kts | 286° |
| 2026-04-18 09:53 | 51.81911 | 3.29973 | 31787 ft | 446 kts | 287° |
| 2026-04-18 09:53 | 51.82994 | 3.25344 | 31369 ft | 438 kts | 284° |
| 2026-04-18 09:53 | 51.83802 | 3.20640 | 30967 ft | 428 kts | 278° |
| 2026-04-18 09:54 | 51.84257 | 3.15977 | 30579 ft | 419 kts | 272° |
| 2026-04-18 09:54 | 51.84394 | 3.11345 | 30210 ft | 411 kts | 266° |
| 2026-04-18 09:54 | 51.84235 | 3.06779 | 29842 ft | 403 kts | 262° |
| 2026-04-18 09:54 | 51.83961 | 3.02300 | 29461 ft | 398 kts | 261° |
| 2026-04-18 09:55 | 51.83672 | 2.97895 | 29083 ft | 393 kts | 261° |
| 2026-04-18 09:55 | 51.83382 | 2.93547 | 28724 ft | 388 kts | 261° |
| 2026-04-18 09:55 | 51.83100 | 2.89297 | 28361 ft | 384 kts | 261° |
| 2026-04-18 09:55 | 51.82817 | 2.85037 | 27987 ft | 380 kts | 261° |
| 2026-04-18 09:56 | 51.82535 | 2.80815 | 27614 ft | 376 kts | 261° |
| 2026-04-18 09:56 | 51.82257 | 2.76650 | 27246 ft | 372 kts | 261° |
| 2026-04-18 09:56 | 51.81978 | 2.72512 | 26868 ft | 369 kts | 261° |
| 2026-04-18 09:56 | 51.81703 | 2.68449 | 26504 ft | 366 kts | 261° |
| 2026-04-18 09:57 | 51.81428 | 2.64395 | 26153 ft | 362 kts | 261° |
| 2026-04-18 09:57 | 51.81152 | 2.60371 | 25795 ft | 359 kts | 261° |
| 2026-04-18 09:57 | 51.80876 | 2.56375 | 25433 ft | 356 kts | 261° |
| 2026-04-18 09:57 | 51.80605 | 2.52483 | 25077 ft | 353 kts | 261° |
| 2026-04-18 09:58 | 51.80331 | 2.48561 | 24722 ft | 350 kts | 261° |
| 2026-04-18 09:58 | 51.80058 | 2.44677 | 24360 ft | 348 kts | 261° |
| 2026-04-18 09:58 | 51.79784 | 2.40791 | 23999 ft | 346 kts | 261° |
| 2026-04-18 09:58 | 51.79512 | 2.36956 | 23645 ft | 344 kts | 261° |
| 2026-04-18 09:59 | 51.79241 | 2.33167 | 23298 ft | 342 kts | 261° |
| 2026-04-18 09:59 | 51.78965 | 2.29330 | 22953 ft | 340 kts | 261° |
| 2026-04-18 09:59 | 51.78715 | 2.25863 | 22644 ft | 338 kts | 261° |
| 2026-04-18 10:00 | 51.78234 | 2.18677 | 21977 ft | 335 kts | 262° |
| 2026-04-18 10:00 | 51.78021 | 2.14983 | 21636 ft | 334 kts | 262° |
| 2026-04-18 10:00 | 51.77807 | 2.11231 | 21291 ft | 332 kts | 262° |
| 2026-04-18 10:00 | 51.77595 | 2.07575 | 20938 ft | 331 kts | 262° |
| 2026-04-18 10:01 | 51.77378 | 2.03875 | 20594 ft | 330 kts | 262° |
| 2026-04-18 10:01 | 51.77160 | 2.00202 | 20236 ft | 328 kts | 262° |
| 2026-04-18 10:01 | 51.76941 | 1.96547 | 19910 ft | 326 kts | 262° |
| 2026-04-18 10:01 | 51.76724 | 1.92949 | 19579 ft | 325 kts | 262° |
| 2026-04-18 10:02 | 51.76507 | 1.89344 | 19242 ft | 323 kts | 262° |
| 2026-04-18 10:02 | 51.76289 | 1.85757 | 18905 ft | 322 kts | 262° |
| 2026-04-18 10:02 | 51.76070 | 1.82191 | 18564 ft | 320 kts | 262° |
| 2026-04-18 10:02 | 51.75852 | 1.78644 | 18235 ft | 318 kts | 262° |
| 2026-04-18 10:03 | 51.75632 | 1.75080 | 17895 ft | 317 kts | 262° |
| 2026-04-18 10:03 | 51.75413 | 1.71561 | 17552 ft | 316 kts | 262° |
| 2026-04-18 10:03 | 51.75194 | 1.68061 | 17215 ft | 315 kts | 262° |
| 2026-04-18 10:03 | 51.74974 | 1.64572 | 16882 ft | 313 kts | 262° |
| 2026-04-18 10:04 | 51.74690 | 1.61069 | 16602 ft | 321 kts | 258° |
| 2026-04-18 10:04 | 51.74304 | 1.57456 | 16349 ft | 327 kts | 262° |
| 2026-04-18 10:04 | 51.74099 | 1.53879 | 16164 ft | 319 kts | 264° |
| 2026-04-18 10:04 | 51.73914 | 1.50376 | 16152 ft | 306 kts | 263° |
| 2026-04-18 10:05 | 51.73724 | 1.47064 | 16146 ft | 293 kts | 263° |
| 2026-04-18 10:05 | 51.73526 | 1.43847 | 16134 ft | 280 kts | 262° |
| 2026-04-18 10:05 | 51.73325 | 1.40776 | 15941 ft | 275 kts | 262° |
| 2026-04-18 10:05 | 51.73119 | 1.37732 | 15906 ft | 265 kts | 262° |
| 2026-04-18 10:06 | 51.72921 | 1.34861 | 15901 ft | 253 kts | 261° |
| 2026-04-18 10:06 | 51.72727 | 1.32092 | 15901 ft | 242 kts | 261° |
| 2026-04-18 10:06 | 51.72535 | 1.29400 | 15835 ft | 241 kts | 261° |
| 2026-04-18 10:06 | 51.72358 | 1.26924 | 15629 ft | 242 kts | 261° |
| 2026-04-18 10:07 | 51.72156 | 1.24157 | 14974 ft | 257 kts | 261° |
| 2026-04-18 10:07 | 51.71971 | 1.21621 | 14379 ft | 270 kts | 262° |
| 2026-04-18 10:07 | 51.71744 | 1.18504 | 13631 ft | 280 kts | 262° |
| 2026-04-18 10:07 | 51.71522 | 1.15434 | 12972 ft | 279 kts | 262° |
| 2026-04-18 10:08 | 51.71300 | 1.12359 | 12372 ft | 276 kts | 262° |
| 2026-04-18 10:08 | 51.71077 | 1.09290 | 11734 ft | 274 kts | 262° |
| 2026-04-18 10:08 | 51.70856 | 1.06279 | 11095 ft | 272 kts | 261° |
| 2026-04-18 10:08 | 51.70635 | 1.03287 | 10472 ft | 270 kts | 261° |
| 2026-04-18 10:09 | 51.70413 | 1.00303 | 9848 ft | 269 kts | 261° |
| 2026-04-18 10:09 | 51.70192 | 0.97346 | 9219 ft | 268 kts | 262° |
| 2026-04-18 10:09 | 51.69972 | 0.94356 | 8587 ft | 267 kts | 263° |
| 2026-04-18 10:09 | 51.69799 | 0.91394 | 7943 ft | 265 kts | 264° |
| 2026-04-18 10:10 | 51.69642 | 0.88451 | 7342 ft | 263 kts | 264° |
| 2026-04-18 10:10 | 51.69488 | 0.85565 | 6948 ft | 252 kts | 264° |
| 2026-04-18 10:10 | 51.69342 | 0.82877 | 6902 ft | 232 kts | 264° |
| 2026-04-18 10:10 | 51.69203 | 0.80331 | 6916 ft | 222 kts | 263° |
| 2026-04-18 10:11 | 51.69068 | 0.77922 | 6896 ft | 213 kts | 263° |
| 2026-04-18 10:11 | 51.68930 | 0.75523 | 6895 ft | 215 kts | 263° |
| 2026-04-18 10:11 | 51.68793 | 0.73108 | 6903 ft | 215 kts | 263° |
| 2026-04-18 10:11 | 51.68655 | 0.70709 | 6902 ft | 216 kts | 263° |
| 2026-04-18 10:12 | 51.68517 | 0.68303 | 6902 ft | 216 kts | 263° |
| 2026-04-18 10:12 | 51.68354 | 0.65872 | 6906 ft | 216 kts | 262° |
| 2026-04-18 10:12 | 51.68180 | 0.63479 | 6924 ft | 216 kts | 262° |
| 2026-04-18 10:12 | 51.68004 | 0.61081 | 6886 ft | 215 kts | 262° |
| 2026-04-18 10:13 | 51.67828 | 0.58671 | 6895 ft | 215 kts | 262° |
| 2026-04-18 10:13 | 51.67657 | 0.56299 | 6897 ft | 215 kts | 262° |
| 2026-04-18 10:13 | 51.67483 | 0.53907 | 6899 ft | 215 kts | 262° |
| 2026-04-18 10:13 | 51.67309 | 0.51529 | 6900 ft | 215 kts | 262° |
| 2026-04-18 10:14 | 51.67133 | 0.49123 | 6910 ft | 215 kts | 262° |
| 2026-04-18 10:14 | 51.66959 | 0.46736 | 6894 ft | 214 kts | 262° |
| 2026-04-18 10:14 | 51.66785 | 0.44352 | 6898 ft | 215 kts | 262° |
| 2026-04-18 10:14 | 51.66613 | 0.41990 | 6898 ft | 214 kts | 262° |
| 2026-04-18 10:15 | 51.66436 | 0.39589 | 6904 ft | 214 kts | 262° |
| 2026-04-18 10:15 | 51.66261 | 0.37221 | 6896 ft | 214 kts | 262° |
| 2026-04-18 10:15 | 51.66085 | 0.34839 | 6898 ft | 213 kts | 261° |
| 2026-04-18 10:15 | 51.65908 | 0.32479 | 6901 ft | 214 kts | 261° |
| 2026-04-18 10:16 | 51.65731 | 0.30099 | 6898 ft | 214 kts | 261° |
| 2026-04-18 10:16 | 51.65580 | 0.28083 | 6901 ft | 215 kts | 261° |
| 2026-04-18 10:16 | 51.65407 | 0.25777 | 6902 ft | 214 kts | 261° |
| 2026-04-18 10:16 | 51.65270 | 0.23943 | 6903 ft | 214 kts | 261° |
| 2026-04-18 10:17 | 51.65083 | 0.21450 | 6900 ft | 214 kts | 261° |
| 2026-04-18 10:17 | 51.64909 | 0.19143 | 6901 ft | 213 kts | 261° |
| 2026-04-18 10:17 | 51.64733 | 0.16764 | 6903 ft | 214 kts | 263° |
| 2026-04-18 10:17 | 51.64663 | 0.14368 | 6902 ft | 215 kts | 268° |
| 2026-04-18 10:18 | 51.64719 | 0.11961 | 6901 ft | 215 kts | 270° |
| 2026-04-18 10:18 | 51.64797 | 0.09563 | 6898 ft | 215 kts | 270° |
| 2026-04-18 10:18 | 51.64878 | 0.07127 | 6900 ft | 215 kts | 270° |
| 2026-04-18 10:18 | 51.64958 | 0.04740 | 6900 ft | 215 kts | 270° |
| 2026-04-18 10:19 | 51.64856 | 0.02386 | 6887 ft | 211 kts | 247° |
| 2026-04-18 10:19 | 51.63995 | 0.00499 | 6785 ft | 214 kts | 216° |
| 2026-04-18 10:19 | 51.62584 | -0.00322 | 6414 ft | 218 kts | 189° |
| 2026-04-18 10:19 | 51.61068 | -0.00358 | 6044 ft | 218 kts | 182° |
| 2026-04-18 10:20 | 51.59639 | -0.00250 | 5689 ft | 217 kts | 181° |
| 2026-04-18 10:20 | 51.58080 | -0.00104 | 5305 ft | 217 kts | 181° |
| 2026-04-18 10:20 | 51.56607 | 0.00033 | 4937 ft | 217 kts | 181° |
| 2026-04-18 10:20 | 51.55138 | 0.00171 | 4573 ft | 217 kts | 181° |
| 2026-04-18 10:21 | 51.53628 | 0.00312 | 4198 ft | 217 kts | 182° |
| 2026-04-18 10:21 | 51.52178 | -0.00064 | 3802 ft | 209 kts | 211° |
| 2026-04-18 10:21 | 51.51181 | -0.01622 | 3430 ft | 205 kts | 242° |
| 2026-04-18 10:21 | 51.50621 | -0.03719 | 3076 ft | 204 kts | 249° |
| 2026-04-18 10:22 | 51.50183 | -0.05823 | 2899 ft | 194 kts | 250° |
| 2026-04-18 10:22 | 51.49807 | -0.07772 | 2884 ft | 177 kts | 251° |
| 2026-04-18 10:22 | 51.49475 | -0.09571 | 2875 ft | 163 kts | 251° |
| 2026-04-18 10:22 | 51.49153 | -0.11296 | 2894 ft | 160 kts | 251° |
| 2026-04-18 10:23 | 51.48848 | -0.12962 | 2900 ft | 147 kts | 251° |
| 2026-04-18 10:23 | 51.48577 | -0.14444 | 2880 ft | 135 kts | 251° |
| 2026-04-18 10:23 | 51.48317 | -0.15889 | 2892 ft | 135 kts | 251° |
| 2026-04-18 10:23 | 51.48060 | -0.17321 | 2896 ft | 134 kts | 251° |
| 2026-04-18 10:24 | 51.47803 | -0.18772 | 2898 ft | 134 kts | 251° |
| 2026-04-18 10:24 | 51.47543 | -0.20211 | 2897 ft | 134 kts | 251° |
| 2026-04-18 10:24 | 51.47281 | -0.21640 | 2900 ft | 134 kts | 251° |
| 2026-04-18 10:24 | 51.46997 | -0.23083 | 2899 ft | 135 kts | 251° |
| 2026-04-18 10:25 | 51.46778 | -0.24539 | 2897 ft | 135 kts | 257° |
| 2026-04-18 10:25 | 51.46648 | -0.26043 | 2857 ft | 135 kts | 261° |
| 2026-04-18 10:25 | 51.46586 | -0.27538 | 2729 ft | 135 kts | 263° |
| 2026-04-18 10:25 | 51.46559 | -0.29032 | 2604 ft | 134 kts | 265° |
| 2026-04-18 10:26 | 51.46560 | -0.30541 | 2341 ft | 135 kts | 267° |
| 2026-04-18 10:26 | 51.46549 | -0.32041 | 1993 ft | 138 kts | 264° |
| 2026-04-18 10:26 | 51.46558 | -0.33574 | 1655 ft | 140 kts | 265° |
| 2026-04-18 10:26 | 51.46562 | -0.35135 | 1294 ft | 143 kts | 266° |
| 2026-04-18 10:27 | 51.46569 | -0.36721 | 969 ft | 146 kts | 263° |
| 2026-04-18 10:27 | 51.46549 | -0.38312 | 765 ft | 139 kts | 263° |
| 2026-04-18 10:27 | 51.46507 | -0.39845 | 515 ft | 141 kts | 263° |
| 2026-04-18 10:27 | 51.46500 | -0.41443 | 346 ft | 141 kts | 266° |
| 2026-04-18 10:28 | 51.46500 | -0.42993 | 142 ft | 137 kts | 265° |
| 2026-04-18 10:28 | 51.46478 | -0.44429 | 93 ft | 109 kts | 273° |
| 2026-04-18 10:28 | 51.46486 | -0.45431 | 94 ft | 84 kts | 270° |
| 2026-04-18 10:28 | 51.46482 | -0.46326 | 94 ft | 67 kts | 279° |
| 2026-04-18 10:29 | 51.46566 | -0.46808 | 94 ft | 19 kts | 302° |
| 2026-04-18 10:29 | 51.46586 | -0.46837 | 94 ft | 0 kts | 331° |
| 2026-04-18 10:29 | 51.46587 | -0.46839 | 94 ft | 1 kts | 332° |
| 2026-04-18 10:30 | 51.46605 | -0.46853 | 94 ft | 4 kts | 338° |
| 2026-04-18 10:30 | 51.46634 | -0.46850 | 94 ft | 4 kts | 32° |
| 2026-04-18 10:30 | 51.46653 | -0.46800 | 94 ft | 6 kts | 67° |
| 2026-04-18 10:30 | 51.46659 | -0.46720 | 94 ft | 8 kts | 89° |
| 2026-04-18 10:31 | 51.46659 | -0.46616 | 94 ft | 10 kts | 91° |
| 2026-04-18 10:31 | 51.46658 | -0.46491 | 94 ft | 11 kts | 91° |
| 2026-04-18 10:31 | 51.46657 | -0.46352 | 94 ft | 12 kts | 89° |
| 2026-04-18 10:31 | 51.46657 | -0.46203 | 94 ft | 13 kts | 90° |
| 2026-04-18 10:32 | 51.46658 | -0.46044 | 94 ft | 14 kts | 89° |
| 2026-04-18 10:32 | 51.46659 | -0.45875 | 94 ft | 15 kts | 90° |
| 2026-04-18 10:32 | 51.46659 | -0.45698 | 94 ft | 16 kts | 90° |
| 2026-04-18 10:32 | 51.46660 | -0.45514 | 94 ft | 17 kts | 90° |
| 2026-04-18 10:33 | 51.46661 | -0.45320 | 94 ft | 17 kts | 90° |
| 2026-04-18 10:33 | 51.46661 | -0.45118 | 94 ft | 18 kts | 88° |
| 2026-04-18 10:33 | 51.46663 | -0.44913 | 93 ft | 18 kts | 90° |
| 2026-04-18 10:33 | 51.46662 | -0.44700 | 93 ft | 19 kts | 90° |
| 2026-04-18 10:34 | 51.46663 | -0.44488 | 93 ft | 18 kts | 90° |
| 2026-04-18 10:34 | 51.46664 | -0.44293 | 93 ft | 16 kts | 90° |
| 2026-04-18 10:34 | 51.46666 | -0.44134 | 93 ft | 12 kts | 81° |
| 2026-04-18 10:34 | 51.46722 | -0.44063 | 93 ft | 11 kts | 8° |
| 2026-04-18 10:35 | 51.46801 | -0.44055 | 93 ft | 12 kts | 1° |
| 2026-04-18 10:35 | 51.46890 | -0.44056 | 94 ft | 13 kts | 360° |
| 2026-04-18 10:35 | 51.46985 | -0.44056 | 94 ft | 14 kts | 0° |
| 2026-04-18 10:35 | 51.47089 | -0.44058 | 94 ft | 15 kts | 360° |
| 2026-04-18 10:36 | 51.47187 | -0.44060 | 94 ft | 13 kts | 359° |
| 2026-04-18 10:36 | 51.47280 | -0.44060 | 94 ft | 13 kts | 1° |
| 2026-04-18 10:36 | 51.47331 | -0.44087 | 94 ft | 2 kts | 294° |
| 2026-04-18 10:36 | 51.47336 | -0.44123 | 94 ft | 4 kts | 277° |
| 2026-04-18 10:37 | 51.47338 | -0.44169 | 94 ft | 1 kts | 274° |
| 2026-04-18 10:37 | 51.47339 | -0.44189 | 94 ft | 0 kts | 274° |
| 2026-04-18 10:37 | 51.47340 | -0.44201 | 95 ft | 0 kts | 274° |